Time;durP1;ratioP1;P1;durP2;ratioP2;P2;SDS_P1;SDS_P2;PMS_P1;PMS_P2;Temp;Humidity;BMP_temperature;BMP_pressure;BME280_temperature;BME280_humidity;BME280_pressure;Samples;Min_cycle;Max_cycle;Signal;HPM_P1;HPM_P2
2023/08/02 10:44:10;;;;;;;5.20;4.70;;;;;;;38.40;47.84;99812.41;108858;1255;64898;-88
2023/08/02 10:47:27;;;;;;;6.70;5.30;;;;;;;38.20;47.82;99808.05;108824;1256;59332;-88
2023/08/02 10:50:42;;;;;;;4.70;4.20;;;;;;;38.05;48.60;99809.34;108749;1256;59493;-88
2023/08/02 10:53:31;;;;;;;5.40;4.90;;;;;;;37.97;48.12;99812.83;108751;1255;67830;-88
2023/08/02 10:56:20;;;;;;;5.50;4.80;;;;;;;37.76;49.42;99811.81;108720;1257;62145;-88
2023/08/02 10:59:08;;;;;;;5.10;4.50;;;;;;;37.69;52.13;99809.13;108745;1256;64062;-88
2023/08/02 11:01:59;;;;;;;5.60;4.70;;;;;;;37.92;53.44;99807.11;108816;1255;58988;-88
2023/08/02 11:04:48;;;;;;;5.00;4.50;;;;;;;38.13;51.08;99806.30;108818;1256;59335;-89
2023/08/02 11:07:37;;;;;;;5.40;4.60;;;;;;;38.11;48.92;99803.08;108872;1256;64522;-88
2023/08/02 11:10:28;;;;;;;8.00;5.00;;;;;;;37.90;48.95;99804.77;108726;1255;61655;-90
2023/08/02 11:13:18;;;;;;;8.20;5.30;;;;;;;37.74;50.92;99800.21;108641;1256;74989;-90
2023/08/02 11:16:07;;;;;;;5.50;4.90;;;;;;;37.79;52.99;99794.16;108781;1256;59503;-89
2023/08/02 11:19:11;;;;;;;6.30;5.20;;;;;;;37.77;52.62;99796.20;108696;1255;59763;-89
2023/08/02 11:22:00;;;;;;;7.80;5.10;;;;;;;37.67;52.77;99792.55;108715;1257;75312;-89
2023/08/02 11:24:56;;;;;;;6.40;5.50;;;;;;;37.55;52.50;99788.98;108878;1255;61183;-90
2023/08/02 11:27:45;;;;;;;6.30;5.70;;;;;;;37.48;55.30;99782.27;108600;1255;65983;-88
2023/08/02 11:30:37;;;;;;;6.80;5.50;;;;;;;37.69;58.38;99779.80;108791;1255;59204;-89
2023/08/02 11:33:25;;;;;;;7.00;5.00;;;;;;;37.99;55.37;99776.79;108837;1255;59872;-88
2023/08/02 11:36:14;;;;;;;6.40;5.00;;;;;;;38.09;53.16;99775.98;108939;1255;66033;-88
2023/08/02 11:39:03;;;;;;;7.80;5.50;;;;;;;38.04;51.30;99775.96;108751;1257;59876;-88
2023/08/02 11:42:04;;;;;;;6.40;5.40;;;;;;;37.91;52.00;99770.90;108828;1255;63766;-88
2023/08/02 11:44:52;;;;;;;6.80;4.80;;;;;;;37.79;50.79;99765.30;108772;1255;59185;-88
2023/08/02 11:48:01;;;;;;;6.70;5.10;;;;;;;37.73;50.05;99768.06;108754;1257;59060;-89
2023/08/02 11:50:53;;;;;;;5.50;4.90;;;;;;;37.53;50.66;99761.70;108815;1257;64524;-89
2023/08/02 11:53:54;;;;;;;7.20;5.40;;;;;;;37.32;51.69;99757.13;108812;1255;61713;-88
2023/08/02 11:56:43;;;;;;;6.80;5.50;;;;;;;37.13;51.83;99754.56;108933;1256;64799;-88
2023/08/02 11:59:32;;;;;;;5.90;5.30;;;;;;;36.96;53.14;99750.89;108793;1257;59727;-88
2023/08/02 12:02:30;;;;;;;6.20;5.60;;;;;;;36.93;54.32;99753.04;108866;1255;59145;-90
2023/08/02 12:05:20;;;;;;;8.40;5.70;;;;;;;36.97;53.72;99752.84;108719;1257;69004;-86
2023/08/02 12:08:10;;;;;;;5.50;4.80;;;;;;;37.14;54.92;99751.10;108946;1255;59522;-89
2023/08/02 12:10:59;;;;;;;9.70;5.10;;;;;;;37.52;54.00;99745.45;108890;1255;66419;-88
2023/08/02 12:13:47;;;;;;;6.90;5.30;;;;;;;37.77;51.92;99747.38;108801;1257;59931;-89
2023/08/02 12:16:43;;;;;;;7.00;5.70;;;;;;;38.12;50.90;99751.83;108740;1256;59326;-89
2023/08/02 12:19:39;;;;;;;9.80;5.70;;;;;;;38.41;50.64;99749.20;108801;1255;65749;-88
2023/08/02 12:22:27;;;;;;;6.10;5.50;;;;;;;38.78;50.80;99746.34;108843;1258;60758;-89
2023/08/02 12:25:15;;;;;;;5.80;5.20;;;;;;;39.09;48.93;99739.65;108825;1255;62470;-88
2023/08/02 12:28:04;;;;;;;6.00;5.40;;;;;;;39.23;47.04;99734.74;108856;1255;59164;-88
2023/08/02 12:31:03;;;;;;;7.70;5.40;;;;;;;39.37;46.08;99732.70;108940;1256;59006;-90
2023/08/02 12:33:52;;;;;;;5.90;5.30;;;;;;;39.47;45.01;99734.42;108784;1255;66053;-90
2023/08/02 12:36:40;;;;;;;7.20;5.90;;;;;;;39.51;44.95;99732.48;108784;1255;62256;-89
2023/08/02 12:39:29;;;;;;;6.80;5.00;;;;;;;39.59;44.67;99725.29;108749;1256;62575;-88
2023/08/02 12:42:18;;;;;;;6.10;4.60;;;;;;;39.64;45.09;99723.75;108762;1255;59512;-87
2023/08/02 12:45:07;;;;;;;6.60;5.40;;;;;;;39.60;43.80;99718.80;108862;1257;59035;-87
2023/08/02 12:48:05;;;;;;;5.70;4.90;;;;;;;39.63;43.11;99722.63;108856;1255;68568;-87
2023/08/02 12:50:53;;;;;;;7.40;5.10;;;;;;;39.56;43.46;99727.10;108882;1255;60647;-87
2023/08/02 12:53:42;;;;;;;12.30;5.10;;;;;;;39.38;43.66;99726.31;108921;1255;65931;-88
2023/08/02 12:56:32;;;;;;;8.40;5.30;;;;;;;39.31;44.15;99722.89;108879;1255;59103;-88
2023/08/02 12:59:21;;;;;;;8.80;4.70;;;;;;;39.47;45.01;99721.53;108918;1255;60315;-88
2023/08/02 13:02:09;;;;;;;7.60;5.20;;;;;;;39.68;44.89;99725.61;108841;1257;67914;-88
2023/08/02 13:04:58;;;;;;;5.30;4.40;;;;;;;39.83;42.46;99726.47;108811;1256;61410;-88
2023/08/02 13:07:46;;;;;;;4.70;4.20;;;;;;;39.69;41.58;99724.75;108797;1257;63089;-87
2023/08/02 13:15:00;;;;;;;6.00;4.40;;;;;;;39.23;42.19;99715.05;108864;1257;59279;-87
2023/08/02 13:17:49;;;;;;;9.80;5.00;;;;;;;38.94;42.99;99707.94;108897;1257;67393;-88
2023/08/02 13:20:37;;;;;;;5.80;4.50;;;;;;;38.69;43.55;99707.86;108754;1257;61249;-87
2023/08/02 13:23:26;;;;;;;9.70;5.30;;;;;;;38.46;44.42;99701.26;108864;1256;65646;-88
2023/08/02 13:26:15;;;;;;;8.40;5.00;;;;;;;38.25;44.89;99698.84;108833;1256;59249;-88
2023/08/02 13:29:03;;;;;;;6.40;5.00;;;;;;;38.13;45.29;99695.48;108785;1255;59809;-88
2023/08/02 13:31:52;;;;;;;6.50;4.90;;;;;;;38.06;45.69;99699.24;108740;1256;77991;-87
2023/08/02 13:34:41;;;;;;;6.60;5.20;;;;;;;38.04;45.72;99697.23;108664;1255;60682;-87
2023/08/02 13:37:29;;;;;;;6.70;4.90;;;;;;;37.95;46.49;99697.13;108795;1256;66534;-87
2023/08/02 13:40:18;;;;;;;6.20;5.10;;;;;;;37.94;46.99;99691.08;108804;1257;60224;-87
2023/08/02 13:43:07;;;;;;;7.60;5.10;;;;;;;38.06;47.47;99688.96;108783;1257;59188;-87
2023/08/02 13:45:58;;;;;;;5.70;4.60;;;;;;;38.22;47.36;99684.29;108810;1255;64743;-88
2023/08/02 13:48:47;;;;;;;5.70;4.40;;;;;;;38.41;45.85;99680.46;108709;1255;69924;-88
2023/08/02 13:51:35;;;;;;;6.60;4.70;;;;;;;38.38;45.14;99678.93;108825;1255;64035;-88
2023/08/02 13:54:23;;;;;;;7.10;4.20;;;;;;;38.38;44.03;99674.38;108861;1255;59946;-89
2023/08/02 13:57:12;;;;;;;6.40;4.50;;;;;;;38.32;44.27;99676.80;108796;1257;61334;-90
2023/08/02 14:00:03;;;;;;;6.00;4.30;;;;;;;38.20;44.54;99673.92;108795;1255;65811;-88
2023/08/02 14:02:52;;;;;;;5.60;4.60;;;;;;;37.92;45.11;99674.09;108756;1257;62247;-89
2023/08/02 14:05:40;;;;;;;7.50;4.40;;;;;;;38.05;45.02;99671.52;108793;1257;65068;-89
2023/08/02 14:08:32;;;;;;;7.10;4.90;;;;;;;38.08;44.81;99669.83;108834;1256;59221;-90
2023/08/02 14:11:23;;;;;;;10.50;4.60;;;;;;;38.08;44.66;99675.73;108808;1255;59322;-89
2023/08/02 14:14:11;;;;;;;6.20;4.40;;;;;;;38.24;44.82;99673.14;108849;1255;67774;-89
2023/08/02 14:17:03;;;;;;;5.30;4.50;;;;;;;38.41;44.40;99669.88;108889;1255;62732;-88
2023/08/02 14:19:51;;;;;;;8.00;4.40;;;;;;;38.67;44.39;99666.52;108896;1255;64817;-89
2023/08/02 14:22:40;;;;;;;6.80;3.90;;;;;;;39.14;43.75;99671.13;108809;1255;59187;-89
2023/08/02 14:25:28;;;;;;;6.50;4.40;;;;;;;39.52;41.57;99669.79;108909;1256;59867;-87
2023/08/02 14:28:17;;;;;;;6.60;4.30;;;;;;;39.68;40.43;99675.41;108862;1255;68434;-89
2023/08/02 14:31:05;;;;;;;5.10;4.10;;;;;;;39.69;39.97;99676.46;108958;1255;60682;-88
2023/08/02 14:33:54;;;;;;;7.50;4.30;;;;;;;39.66;39.66;99676.73;108864;1256;63897;-87
2023/08/02 14:36:44;;;;;;;7.40;3.70;;;;;;;39.58;39.60;99677.92;108733;1255;59860;-87
2023/08/02 14:39:33;;;;;;;5.00;4.10;;;;;;;39.46;39.74;99671.53;108728;1255;59815;-88
2023/08/02 14:42:26;;;;;;;7.70;4.90;;;;;;;39.36;40.51;99672.09;108840;1255;67424;-87
2023/08/02 14:45:15;;;;;;;4.50;3.80;;;;;;;39.35;40.66;99671.57;108781;1255;60307;-88
2023/08/02 14:48:11;;;;;;;5.40;3.70;;;;;;;39.22;41.16;99669.86;108777;1255;66137;-89
2023/08/02 14:51:13;;;;;;;6.40;4.20;;;;;;;39.10;42.02;99673.01;108813;1256;59307;-91
2023/08/02 14:54:02;;;;;;;7.30;4.10;;;;;;;38.97;42.18;99672.60;108815;1255;59272;-90
2023/08/02 14:57:01;;;;;;;4.60;3.50;;;;;;;38.87;42.65;99669.98;108800;1257;68188;-89
2023/08/02 14:59:50;;;;;;;6.90;4.20;;;;;;;38.69;42.99;99666.59;108842;1255;61943;-89
2023/08/02 15:02:38;;;;;;;7.50;3.70;;;;;;;38.56;43.21;99671.71;108818;1256;65813;-90
2023/08/02 15:05:30;;;;;;;5.90;4.10;;;;;;;38.45;44.04;99673.96;108810;1255;59574;-91
2023/08/02 15:08:20;;;;;;;5.90;4.40;;;;;;;38.42;44.57;99671.19;108808;1255;59182;-89
2023/08/02 15:11:09;;;;;;;5.60;4.60;;;;;;;38.37;45.07;99669.85;108824;1255;67609;-89
2023/08/02 15:13:59;;;;;;;6.00;4.60;;;;;;;38.27;45.19;99669.88;108853;1256;62527;-88
2023/08/02 15:16:49;;;;;;;7.00;5.10;;;;;;;38.22;45.68;99671.44;108739;1256;67378;-88
2023/08/02 15:19:38;;;;;;;13.10;4.60;;;;;;;38.18;45.89;99672.60;108718;1256;62780;-88
2023/08/02 15:22:27;;;;;;;7.50;4.60;;;;;;;38.17;46.65;99668.95;108798;1255;59205;-88
2023/08/02 15:25:17;;;;;;;5.80;4.00;;;;;;;38.19;46.09;99671.38;108729;1255;64518;-89
2023/08/02 15:28:06;;;;;;;9.80;4.50;;;;;;;38.20;45.91;99672.89;108710;1255;62273;-90
2023/08/02 15:31:24;;;;;;;6.70;4.80;;;;;;;38.09;46.59;99674.20;108736;1255;66557;-90
2023/08/02 15:34:14;;;;;;;10.60;4.40;;;;;;;37.98;47.54;99671.23;108794;1256;59325;-88
2023/08/02 15:37:04;;;;;;;6.40;4.30;;;;;;;37.94;48.32;99665.36;108711;1255;59036;-89
2023/08/02 15:39:53;;;;;;;11.00;4.70;;;;;;;37.95;48.60;99667.89;108562;1255;68457;-89
2023/08/02 15:42:41;;;;;;;7.00;4.30;;;;;;;37.88;48.67;99665.74;108870;1256;59739;-89
2023/08/02 15:45:30;;;;;;;9.00;4.60;;;;;;;37.82;49.13;99665.17;108789;1255;66085;-89
2023/08/02 15:48:18;;;;;;;5.50;4.80;;;;;;;37.73;49.75;99666.50;108751;1255;60338;-89
2023/08/02 15:51:08;;;;;;;10.90;5.00;;;;;;;37.66;50.30;99669.04;108731;1255;59439;-91
2023/08/02 15:53:56;;;;;;;5.80;4.60;;;;;;;37.59;50.97;99666.25;108665;1255;67225;-88
2023/08/02 15:56:44;;;;;;;8.50;4.60;;;;;;;37.60;51.32;99667.92;108831;1255;59963;-89
2023/08/02 15:59:33;;;;;;;6.10;4.80;;;;;;;37.54;51.46;99671.30;108660;1256;62579;-89
2023/08/02 16:02:22;;;;;;;5.10;4.60;;;;;;;37.37;52.35;99670.02;108754;1255;59705;-88
2023/08/02 16:05:11;;;;;;;6.00;4.70;;;;;;;36.98;54.55;99673.25;108854;1256;59642;-91
2023/08/02 16:07:59;;;;;;;7.00;5.00;;;;;;;36.97;55.67;99679.16;108933;1256;67872;-92
2023/08/02 16:10:48;;;;;;;8.20;4.90;;;;;;;36.91;55.99;99679.64;108831;1255;62387;-91
2023/08/02 16:13:36;;;;;;;9.30;5.00;;;;;;;36.74;57.36;99680.16;108714;1255;63906;-90
2023/08/02 16:16:26;;;;;;;8.60;5.80;;;;;;;36.75;58.07;99679.72;108814;1256;59694;-90
2023/08/02 16:19:14;;;;;;;8.40;4.90;;;;;;;36.83;58.15;99680.58;108800;1255;59542;-91
2023/08/02 16:22:03;;;;;;;7.60;5.00;;;;;;;36.83;59.65;99681.58;108807;1255;68185;-91
2023/08/02 16:24:52;;;;;;;7.80;5.00;;;;;;;36.86;60.42;99681.27;108853;1255;61180;-91
2023/08/02 16:27:41;;;;;;;12.20;5.30;;;;;;;36.80;60.96;99682.27;108722;1255;63768;-92
2023/08/02 16:30:29;;;;;;;9.50;6.00;;;;;;;36.74;61.63;99679.84;108780;1255;59799;-89
2023/08/02 16:33:18;;;;;;;12.10;5.50;;;;;;;36.64;63.24;99677.06;108840;1255;59411;-90
2023/08/02 16:36:07;;;;;;;9.90;5.80;;;;;;;36.60;64.97;99676.21;108785;1255;67838;-88
2023/08/02 16:38:56;;;;;;;7.60;5.40;;;;;;;36.53;65.82;99675.86;108777;1255;62639;-89
2023/08/02 16:41:44;;;;;;;7.50;5.60;;;;;;;36.52;65.89;99669.73;108773;1255;63787;-88
2023/08/02 16:44:33;;;;;;;10.20;5.90;;;;;;;36.43;66.96;99670.31;108785;1256;59482;-88
2023/08/02 16:47:24;;;;;;;8.80;5.60;;;;;;;36.29;68.64;99671.98;108851;1255;59244;-88
2023/08/02 16:50:13;;;;;;;7.70;5.70;;;;;;;36.19;68.85;99676.52;108899;1255;66782;-89
2023/08/02 16:53:01;;;;;;;7.60;6.00;;;;;;;36.03;69.46;99680.27;108764;1255;69771;-89
2023/08/02 16:55:51;;;;;;;7.30;5.80;;;;;;;35.92;70.18;99680.73;108838;1255;64398;-89
2023/08/02 16:58:39;;;;;;;8.20;6.50;;;;;;;35.77;69.99;99688.13;108831;1255;59813;-89
2023/08/02 17:01:28;;;;;;;7.80;6.70;;;;;;;35.68;69.25;99692.97;108802;1256;59087;-86
2023/08/02 17:04:17;;;;;;;7.20;6.40;;;;;;;35.51;69.16;99695.70;108859;1255;67925;-86
2023/08/02 17:07:05;;;;;;;8.10;6.40;;;;;;;35.40;69.40;99703.85;108787;1257;59810;-88
2023/08/02 17:09:54;;;;;;;6.00;3.00;;;;;;;35.29;65.64;99746.74;108808;1255;65934;-87
2023/08/02 17:12:43;;;;;;;5.50;2.80;;;;;;;34.97;53.73;99762.49;108830;1255;59203;-87
2023/08/02 17:15:31;;;;;;;4.40;2.00;;;;;;;34.63;49.65;99764.52;108735;1255;60105;-88
2023/08/02 17:18:23;;;;;;;4.40;1.70;;;;;;;34.33;47.32;99769.16;108871;1257;67272;-88
2023/08/02 17:21:12;;;;;;;3.20;1.50;;;;;;;34.04;46.05;99778.98;108854;1255;62282;-87
2023/08/02 17:24:02;;;;;;;4.30;1.90;;;;;;;33.83;46.10;99787.94;108825;1256;65226;-88
2023/08/02 17:26:50;;;;;;;1.60;1.50;;;;;;;33.66;46.15;99787.85;108760;1255;59221;-87
2023/08/02 17:29:39;;;;;;;5.10;1.50;;;;;;;33.47;46.32;99783.17;108767;1255;60664;-88
2023/08/02 17:32:27;;;;;;;7.40;1.90;;;;;;;33.38;46.13;99773.16;108831;1255;66198;-87
2023/08/02 17:35:16;;;;;;;5.60;1.60;;;;;;;33.29;46.11;99768.92;108792;1255;61525;-87
2023/08/02 17:38:05;;;;;;;6.60;1.50;;;;;;;33.07;46.12;99768.21;108870;1255;66610;-88
2023/08/02 17:40:53;;;;;;;2.70;1.70;;;;;;;32.92;46.92;99784.65;108876;1256;59140;-87
2023/08/02 17:43:46;;;;;;;6.60;1.00;;;;;;;32.80;47.21;99789.35;108777;1255;59061;-87
2023/08/02 17:46:35;;;;;;;3.80;0.80;;;;;;;32.64;47.55;99792.55;108796;1255;68444;-87
2023/08/02 17:49:23;;;;;;;1.30;1.10;;;;;;;32.51;47.52;99794.52;108742;1257;62581;-87
2023/08/02 17:52:11;;;;;;;2.60;1.20;;;;;;;32.47;47.59;99803.00;108802;1255;65249;-87
2023/08/02 17:55:00;;;;;;;1.70;1.30;;;;;;;32.47;48.06;99815.20;108880;1255;58992;-87
2023/08/02 17:57:48;;;;;;;1.80;1.20;;;;;;;32.51;48.13;99817.37;108893;1255;59444;-89
2023/08/02 18:00:38;;;;;;;2.30;1.20;;;;;;;32.45;48.63;99823.66;108876;1255;67518;-89
2023/08/02 18:03:27;;;;;;;3.80;1.10;;;;;;;32.29;49.31;99823.44;108876;1255;60721;-90
2023/08/02 18:06:18;;;;;;;2.70;1.50;;;;;;;32.21;49.89;99821.30;108738;1255;66269;-91
2023/08/02 18:09:06;;;;;;;2.10;1.50;;;;;;;32.11;50.79;99819.94;108728;1255;60447;-90
2023/08/02 18:11:55;;;;;;;4.60;2.00;;;;;;;32.01;51.71;99819.70;108852;1255;59285;-89
2023/08/02 18:14:43;;;;;;;2.60;1.60;;;;;;;31.96;52.29;99825.79;108783;1257;68573;-90
2023/08/02 18:17:31;;;;;;;2.40;1.50;;;;;;;31.84;53.11;99820.41;108863;1255;59930;-88
2023/08/02 18:20:20;;;;;;;2.70;1.70;;;;;;;31.77;53.69;99818.33;108869;1255;64824;-89
2023/08/02 18:23:10;;;;;;;5.50;2.30;;;;;;;31.62;54.79;99816.41;108742;1255;59745;-88
2023/08/02 18:25:58;;;;;;;3.10;1.50;;;;;;;31.48;55.59;99813.74;108943;1256;59237;-90
2023/08/02 18:28:48;;;;;;;2.00;1.10;;;;;;;31.49;55.81;99809.45;108804;1255;67911;-90
2023/08/02 18:31:37;;;;;;;2.50;1.00;;;;;;;31.48;56.22;99808.92;108821;1256;62282;-87
2023/08/02 18:34:27;;;;;;;1.70;1.60;;;;;;;31.46;57.07;99811.45;108911;1257;62530;-88
2023/08/02 18:37:16;;;;;;;1.50;1.00;;;;;;;31.51;58.45;99811.02;108815;1259;59754;-90
2023/08/02 18:40:07;;;;;;;1.40;1.00;;;;;;;31.48;59.85;99811.50;108793;1256;59391;-92
2023/08/02 18:42:55;;;;;;;1.40;1.20;;;;;;;31.50;60.20;99812.17;108863;1255;67225;-87
2023/08/02 18:45:45;;;;;;;1.10;1.00;;;;;;;31.48;60.62;99813.04;108813;1259;60365;-91
2023/08/02 18:48:33;;;;;;;1.10;1.00;;;;;;;31.52;60.78;99814.71;108748;1255;66733;-91
2023/08/02 18:51:22;;;;;;;4.20;1.20;;;;;;;31.46;62.51;99810.82;108680;1258;59855;-90
2023/08/02 18:54:10;;;;;;;1.30;1.10;;;;;;;31.46;64.82;99811.14;108736;1255;59445;-90
2023/08/02 18:56:58;;;;;;;1.70;1.20;;;;;;;31.49;66.05;99817.04;108756;1255;64754;-88
2023/08/02 18:59:47;;;;;;;2.80;1.30;;;;;;;31.54;66.62;99818.06;108806;1256;61506;-88
2023/08/02 19:02:38;;;;;;;5.50;1.20;;;;;;;31.59;67.16;99817.77;108809;1258;62555;-91
2023/08/02 19:05:27;;;;;;;2.80;1.10;;;;;;;31.56;67.01;99824.52;108837;1255;59866;-91
2023/08/02 19:08:16;;;;;;;2.20;1.40;;;;;;;31.50;67.10;99822.24;108763;1255;61708;-89
2023/08/02 19:11:04;;;;;;;4.60;1.40;;;;;;;31.50;68.08;99822.50;108837;1255;68349;-88
2023/08/02 19:13:53;;;;;;;4.70;1.40;;;;;;;31.54;68.92;99817.64;108815;1256;62087;-88
2023/08/02 19:16:41;;;;;;;3.80;1.40;;;;;;;31.55;70.21;99815.04;108951;1256;63854;-88
2023/08/02 19:19:32;;;;;;;4.10;1.40;;;;;;;31.51;71.59;99814.73;108862;1256;59406;-89
2023/08/02 19:22:21;;;;;;;4.90;1.40;;;;;;;31.44;72.95;99819.09;108684;1256;59324;-89
2023/08/02 19:25:09;;;;;;;1.80;1.30;;;;;;;31.41;73.98;99817.61;108907;1256;65779;-90
2023/08/02 19:27:59;;;;;;;4.90;1.40;;;;;;;31.28;74.76;99826.34;108770;1259;62058;-90
2023/08/02 19:30:48;;;;;;;4.60;1.30;;;;;;;31.32;74.30;99832.95;108757;1256;65035;-91
2023/08/02 19:33:40;;;;;;;2.30;1.30;;;;;;;31.33;72.87;99836.15;108893;1257;59258;-88
2023/08/02 19:36:28;;;;;;;6.20;1.40;;;;;;;31.19;73.08;99839.91;108797;1256;59197;-87
2023/08/02 19:39:17;;;;;;;5.40;1.30;;;;;;;31.07;73.73;99851.77;108963;1256;66427;-90
2023/08/02 19:42:06;;;;;;;3.60;1.40;;;;;;;31.01;74.22;99865.84;108957;1256;62380;-90
2023/08/02 19:44:55;;;;;;;2.50;1.30;;;;;;;31.10;73.44;99880.33;108842;1256;66108;-88
2023/08/02 19:47:43;;;;;;;2.80;1.50;;;;;;;31.17;72.08;99886.64;108871;1257;59013;-89
2023/08/02 19:50:31;;;;;;;2.40;1.50;;;;;;;30.98;72.39;99906.20;108813;1257;59299;-88
2023/08/02 19:53:22;;;;;;;3.40;1.60;;;;;;;31.01;71.31;99919.19;108867;1257;66385;-89
2023/08/02 19:56:15;;;;;;;2.70;1.30;;;;;;;30.94;70.96;99923.12;108764;1256;62082;-90
2023/08/02 19:59:03;;;;;;;4.80;1.50;;;;;;;30.99;70.38;99933.67;108857;1256;65266;-90
2023/08/02 20:01:52;;;;;;;1.30;1.20;;;;;;;30.96;70.02;99931.22;108855;1256;59431;-88
2023/08/02 20:04:41;;;;;;;3.10;1.20;;;;;;;30.97;69.84;99924.52;108911;1256;59108;-90
2023/08/02 20:07:29;;;;;;;2.10;1.40;;;;;;;30.95;69.30;99912.80;108912;1256;76020;-87
2023/08/02 20:10:58;;;;;;;1.40;1.30;;;;;;;30.93;69.53;99906.15;108824;1256;62277;-86
2023/08/02 20:13:50;;;;;;;2.60;1.40;;;;;;;31.06;68.94;99897.73;108790;1256;63743;-88
2023/08/02 20:16:39;;;;;;;3.70;1.70;;;;;;;31.01;69.30;99893.64;108895;1256;59156;-89
2023/08/02 20:19:27;;;;;;;1.90;1.30;;;;;;;30.92;69.69;99893.58;108899;1255;59850;-90
2023/08/02 20:22:16;;;;;;;2.60;1.40;;;;;;;30.96;69.79;99888.05;108833;1256;66896;-90
2023/08/02 20:25:04;;;;;;;2.10;1.30;;;;;;;30.95;70.83;99885.63;108768;1256;60998;-87
2023/08/02 20:27:53;;;;;;;6.10;1.50;;;;;;;30.94;71.81;99885.17;108847;1257;65084;-88
2023/08/02 20:30:41;;;;;;;3.10;1.50;;;;;;;30.88;73.02;99883.11;108751;1257;59185;-88
2023/08/02 20:33:29;;;;;;;3.20;1.40;;;;;;;30.65;75.49;99878.02;108768;1256;59265;-88
2023/08/02 20:36:19;;;;;;;8.80;1.60;;;;;;;30.57;77.45;99884.94;108819;1257;65790;-89
2023/08/02 20:39:12;;;;;;;4.80;1.60;;;;;;;30.49;79.23;99887.49;108903;1257;61246;-89
2023/08/02 20:42:00;;;;;;;4.10;2.10;;;;;;;30.43;80.58;99885.98;108689;1256;62509;-88
2023/08/02 20:44:49;;;;;;;2.60;1.30;;;;;;;30.34;82.74;99882.84;108792;1257;59049;-87
2023/08/02 20:47:37;;;;;;;4.00;2.10;;;;;;;30.21;84.80;99877.23;108834;1256;59368;-91
2023/08/02 20:50:26;;;;;;;3.40;1.80;;;;;;;30.19;85.40;99870.73;108862;1256;66324;-91
2023/08/02 20:53:15;;;;;;;2.60;1.60;;;;;;;30.18;85.65;99868.26;108734;1256;61404;-89
2023/08/02 20:56:05;;;;;;;4.10;1.60;;;;;;;30.17;86.50;99866.27;108780;1257;62465;-90
2023/08/02 20:58:54;;;;;;;3.70;1.70;;;;;;;30.18;87.12;99864.39;108854;1256;59744;-88
2023/08/02 21:01:45;;;;;;;6.20;1.70;;;;;;;30.11;87.94;99862.73;108840;1256;59107;-87
2023/08/02 21:08:40;;;;;;;4.10;2.00;;;;;;;29.95;90.00;99848.42;108933;1257;61064;-88
2023/08/02 22:42:24;;;;;;;4.60;2.40;;;;;;;29.78;93.64;99848.29;108944;1257;59861;-90
2023/08/02 22:45:12;;;;;;;6.40;2.30;;;;;;;29.71;93.00;99841.08;108681;1261;75501;-89
2023/08/02 22:48:00;;;;;;;6.50;2.30;;;;;;;29.49;93.92;99834.83;108794;1257;59593;-89
2023/08/02 22:51:09;;;;;;;3.60;2.30;;;;;;;29.33;95.27;99828.46;108836;1257;59207;-90
2023/08/02 22:53:57;;;;;;;3.00;2.40;;;;;;;29.34;95.63;99825.33;108877;1256;67180;-88
2023/08/02 22:56:46;;;;;;;6.40;2.50;;;;;;;29.33;95.47;99826.55;108935;1257;61703;-89
2023/08/02 22:59:35;;;;;;;3.20;2.10;;;;;;;29.20;96.72;99832.41;108835;1257;66206;-89
2023/08/02 23:02:28;;;;;;;7.60;2.20;;;;;;;29.20;97.14;99836.52;108724;1256;59743;-90
2023/08/02 23:05:20;;;;;;;3.80;2.20;;;;;;;29.21;97.12;99838.11;108838;1257;59227;-89
2023/08/02 23:08:08;;;;;;;4.80;2.60;;;;;;;29.11;97.25;99835.83;108856;1256;64561;-89
2023/08/02 23:10:57;;;;;;;5.20;2.40;;;;;;;28.99;98.00;99841.33;108787;1258;60854;-89
2023/08/02 23:13:46;;;;;;;4.80;2.50;;;;;;;28.94;98.42;99846.11;108878;1256;63787;-88
2023/08/02 23:16:34;;;;;;;5.30;2.60;;;;;;;28.84;99.07;99841.65;108825;1257;59186;-87
2023/08/02 23:19:23;;;;;;;6.20;2.60;;;;;;;28.65;99.71;99844.75;108808;1256;59232;-90
2023/08/02 23:22:12;;;;;;;4.30;2.50;;;;;;;28.51;99.45;99849.45;108747;1256;64882;-89
2023/08/02 23:25:00;;;;;;;5.20;2.70;;;;;;;28.56;98.63;99852.88;108755;1257;61671;-89
2023/08/02 23:27:49;;;;;;;8.50;3.60;;;;;;;28.53;98.90;99854.03;108875;1257;65128;-88
2023/08/02 23:30:37;;;;;;;4.50;2.60;;;;;;;28.52;99.19;99856.85;108716;1260;59384;-89
2023/08/02 23:33:26;;;;;;;7.60;2.50;;;;;;;28.61;98.57;99856.69;108753;1257;59457;-89
2023/08/02 23:36:14;;;;;;;6.70;2.50;;;;;;;28.62;98.15;99854.81;108893;1257;66287;-89
2023/08/02 23:39:02;;;;;;;3.70;2.60;;;;;;;28.64;97.37;99858.17;108863;1261;60650;-89
2023/08/02 23:41:51;;;;;;;3.20;2.60;;;;;;;28.58;97.13;99860.88;108835;1257;66294;-88
2023/08/02 23:44:39;;;;;;;5.40;2.60;;;;;;;28.45;97.18;99858.83;108886;1257;59430;-89
2023/08/02 23:47:28;;;;;;;4.70;2.50;;;;;;;28.35;97.63;99858.09;108740;1257;60697;-91
2023/08/02 23:50:16;;;;;;;10.80;3.20;;;;;;;28.33;97.00;99862.38;108803;1257;67206;-89
2023/08/02 23:53:05;;;;;;;4.30;2.40;;;;;;;28.25;96.60;99860.20;108874;1257;61097;-88
2023/08/02 23:55:54;;;;;;;9.10;2.80;;;;;;;28.21;95.73;99861.10;108886;1257;62541;-89
2023/08/02 23:58:42;;;;;;;6.20;3.00;;;;;;;28.16;95.93;99862.35;108941;1258;59078;-90
